EKSP/SKS METAR and TAF weather

Enter ICAO airport designator
Station Type Date Time Source
EKSP METAR 2022/11/27 08:20 UTC NOAA

EKSP 270820Z 15008KT 7000 NSC 05/04 Q1022


Station Type Date Time Source
EKSP Decoded METAR 2022/11/27 08:20 UTC NOAA

Skrydstrup, Denmark (EKSP) 55-14N 009-16E 47M
Nov 27, 2022 - 03:20 AM EST / 2022.11.27 0820 UTC
Wind: from the SSE (150 degrees) at 9 MPH (8 KT):0
Visibility: 4 mile(s):0
Temperature: 41 F (5 C)
Dew Point: 39 F (4 C)
Relative Humidity: 93%
Pressure (altimeter): 30.18 in. Hg (1022 hPa)
ob: EKSP 270820Z 15008KT 7000 NSC 05/04 Q1022
cycle: 8

Station Type Date Time Source
EKSP TAF 2022/11/27 06:30 UTC NOAA

TAF EKSP 270509Z 2706/2806 16010KT 1800 BR BKN002
BECMG 2706/2708 8000 NSW SCT015 BKN030
TEMPO 2708/2710 BKN008
BECMG 2716/2718 7000 -RA
TEMPO 2718/2803 4000 RA BR BKN010

Example: see airport list